createdAt,value
2022-10-11T00:00:54.768Z,92.59
2022-10-11T00:03:22.826Z,90.37
2022-10-11T00:05:50.434Z,90.70
2022-10-11T00:08:17.944Z,90.85
2022-10-11T00:10:45.529Z,90.83
2022-10-11T00:13:14.129Z,90.58
2022-10-11T00:15:41.925Z,90.90
2022-10-11T00:18:09.557Z,91.15
2022-10-11T00:20:37.537Z,90.91
2022-10-11T00:23:05.103Z,91.39
2022-10-11T00:25:33.040Z,91.81
2022-10-11T00:28:00.569Z,92.62
2022-10-11T00:30:28.221Z,92.74
2022-10-11T00:32:56.047Z,91.09
2022-10-11T00:35:23.713Z,91.65
2022-10-11T00:37:51.484Z,92.23
2022-10-11T00:40:22.153Z,93.72
2022-10-11T00:42:49.764Z,94.12
2022-10-11T00:45:32.578Z,93.97
2022-10-11T00:48:14.694Z,94.17
2022-10-11T00:50:43.178Z,94.85
2022-10-11T00:53:12.588Z,94.64
2022-10-11T00:55:53.348Z,95.70
2022-10-11T00:58:24.189Z,95.82
2022-10-11T01:00:52.084Z,95.87
2022-10-11T01:03:22.369Z,95.41
2022-10-11T01:05:50.026Z,95.15
2022-10-11T01:08:17.531Z,93.72
2022-10-11T01:10:45.667Z,94.40
2022-10-11T01:13:48.342Z,94.81
2022-10-11T01:16:44.126Z,95.59
2022-10-11T01:19:20.591Z,94.18
2022-10-11T01:22:23.613Z,95.83
2022-10-11T01:25:12.960Z,94.96
2022-10-11T01:28:18.525Z,95.90
2022-10-11T01:30:47.129Z,96.37
2022-10-11T01:33:57.325Z,96.59
2022-10-11T01:36:34.613Z,96.14
2022-10-11T01:39:18.720Z,96.64
2022-10-11T01:41:54.822Z,96.85
2022-10-11T01:44:25.215Z,98.51
2022-10-11T01:46:54.043Z,100.00
2022-10-11T01:49:21.978Z,100.00
2022-10-11T01:51:54.006Z,100.00
2022-10-11T01:55:08.090Z,99.77
2022-10-11T01:57:59.763Z,100.00
2022-10-11T02:01:00.488Z,100.00
2022-10-11T02:04:01.800Z,100.00
2022-10-11T02:06:40.843Z,100.00
2022-10-11T02:09:37.903Z,100.00
2022-10-11T02:12:13.057Z,100.00
2022-10-11T02:14:47.951Z,100.00
2022-10-11T02:17:20.824Z,100.00
2022-10-11T02:19:53.739Z,100.00
2022-10-11T02:22:33.951Z,100.00
2022-10-11T02:25:07.770Z,100.00
2022-10-11T02:27:39.222Z,100.00
2022-10-11T02:30:12.208Z,100.00
2022-10-11T02:32:44.124Z,100.00
2022-10-11T02:35:13.345Z,100.00
2022-10-11T02:37:59.724Z,100.00
2022-10-11T02:40:33.178Z,100.00
2022-10-11T02:43:13.010Z,100.00
2022-10-11T02:45:51.374Z,100.00
2022-10-11T02:48:19.724Z,100.00
2022-10-11T02:50:48.090Z,100.00
2022-10-11T02:53:15.623Z,100.00
2022-10-11T02:55:43.103Z,100.00
2022-10-11T02:58:10.597Z,100.00
2022-10-11T03:00:38.080Z,100.00
2022-10-11T03:03:05.589Z,100.00
2022-10-11T03:05:37.325Z,100.00
2022-10-11T03:08:04.885Z,100.00
2022-10-11T03:10:33.894Z,100.00
2022-10-11T03:13:02.173Z,100.00
2022-10-11T03:15:30.132Z,100.00
2022-10-11T03:17:57.721Z,100.00
2022-10-11T03:20:26.214Z,100.00
2022-10-11T03:22:54.647Z,100.00
2022-10-11T03:25:22.174Z,100.00
2022-10-11T03:27:49.975Z,100.00
2022-10-11T03:30:18.471Z,100.00
2022-10-11T03:32:46.220Z,100.00
2022-10-11T03:35:13.786Z,100.00
2022-10-11T03:37:41.523Z,100.00
2022-10-11T03:40:10.153Z,100.00
2022-10-11T03:42:38.204Z,100.00
2022-10-11T03:45:08.992Z,100.00
2022-10-11T03:47:38.751Z,100.00
2022-10-11T03:50:08.833Z,100.00
2022-10-11T03:52:38.934Z,100.00
2022-10-11T03:55:07.433Z,100.00
2022-10-11T03:57:35.136Z,100.00
2022-10-11T04:00:02.866Z,100.00
2022-10-11T04:02:36.972Z,100.00
2022-10-11T04:05:07.785Z,100.00
2022-10-11T04:07:38.586Z,100.00
2022-10-11T04:10:07.281Z,100.00
2022-10-11T04:12:36.845Z,100.00
2022-10-11T04:15:05.762Z,100.00
2022-10-11T04:17:34.455Z,100.00
2022-10-11T04:20:02.076Z,100.00
2022-10-11T04:22:29.687Z,100.00
2022-10-11T04:24:57.364Z,100.00
2022-10-11T04:27:27.312Z,100.00
2022-10-11T04:29:55.191Z,100.00
2022-10-11T04:32:22.830Z,100.00
2022-10-11T04:34:51.384Z,100.00
2022-10-11T04:37:19.663Z,100.00
2022-10-11T04:39:47.247Z,100.00
2022-10-11T04:42:14.717Z,100.00
2022-10-11T04:44:42.280Z,100.00
2022-10-11T04:47:09.764Z,100.00
2022-10-11T04:49:37.295Z,100.00
2022-10-11T04:52:05.023Z,100.00
2022-10-11T04:54:32.674Z,100.00
2022-10-11T04:57:00.178Z,100.00
2022-10-11T04:59:29.105Z,100.00
2022-10-11T05:01:56.871Z,100.00
2022-10-11T05:04:24.613Z,100.00
2022-10-11T05:06:52.201Z,100.00
2022-10-11T05:09:20.138Z,100.00
2022-10-11T05:11:47.730Z,100.00
2022-10-11T05:14:15.357Z,100.00
2022-10-11T05:16:42.832Z,100.00
2022-10-11T05:19:10.595Z,100.00
2022-10-11T05:21:38.635Z,100.00
2022-10-11T05:24:07.072Z,100.00
2022-10-11T05:26:34.793Z,100.00
2022-10-11T05:29:02.722Z,100.00
2022-10-11T05:31:30.493Z,100.00
2022-10-11T05:33:58.110Z,100.00
2022-10-11T05:36:25.736Z,100.00
2022-10-11T05:38:53.207Z,100.00
2022-10-11T05:41:20.783Z,100.00
2022-10-11T05:43:48.239Z,100.00
2022-10-11T05:46:16.158Z,100.00
2022-10-11T05:48:43.737Z,100.00
2022-10-11T05:51:12.738Z,100.00
2022-10-11T05:53:40.724Z,100.00
2022-10-11T05:56:21.006Z,98.70
2022-10-11T05:58:48.668Z,98.62
2022-10-11T06:01:26.859Z,97.41
2022-10-11T06:03:55.908Z,94.97
2022-10-11T06:06:24.623Z,94.40
2022-10-11T06:08:52.164Z,94.32
2022-10-11T06:11:25.381Z,94.23
2022-10-11T06:14:00.425Z,94.42
2022-10-11T06:16:30.614Z,93.40
2022-10-11T06:18:58.393Z,94.06
2022-10-11T06:21:26.143Z,93.26
2022-10-11T06:23:59.871Z,92.61
2022-10-11T06:26:29.861Z,92.19
2022-10-11T06:28:57.716Z,92.85
2022-10-11T06:31:25.492Z,92.45
2022-10-11T06:33:52.973Z,91.98
2022-10-11T06:36:20.461Z,92.43
2022-10-11T06:38:51.014Z,93.71
2022-10-11T06:41:26.582Z,91.73
2022-10-11T06:43:54.289Z,92.64
2022-10-11T06:46:25.238Z,91.85
2022-10-11T06:48:56.199Z,92.55
2022-10-11T06:51:24.897Z,93.66
2022-10-11T06:53:55.909Z,95.99
2022-10-11T06:56:29.674Z,95.92
2022-10-11T06:58:59.476Z,91.24
2022-10-11T07:01:27.848Z,90.18
2022-10-11T07:03:58.031Z,91.43
2022-10-11T07:06:29.032Z,90.84
2022-10-11T07:08:57.508Z,92.65
2022-10-11T07:11:28.178Z,92.51
2022-10-11T07:14:03.017Z,91.94
2022-10-11T07:16:31.383Z,89.47
2022-10-11T07:19:01.824Z,88.43
2022-10-11T07:21:31.430Z,89.38
2022-10-11T07:23:59.753Z,87.70
2022-10-11T07:26:33.730Z,85.32
2022-10-11T07:29:08.851Z,87.08
2022-10-11T07:31:40.652Z,89.59
2022-10-11T07:34:09.151Z,91.11
2022-10-11T07:36:37.389Z,90.15
2022-10-11T07:39:07.338Z,89.61
2022-10-11T07:41:38.838Z,88.99
2022-10-11T07:44:08.494Z,86.08
2022-10-11T07:46:35.925Z,85.57
2022-10-11T07:49:03.531Z,84.36
2022-10-11T07:51:30.979Z,84.58
2022-10-11T07:54:00.510Z,81.74
2022-10-11T07:56:32.003Z,81.03
2022-10-11T07:59:03.653Z,82.04
2022-10-11T08:01:32.499Z,81.81
2022-10-11T08:04:00.606Z,80.34
2022-10-11T08:06:32.799Z,79.41
2022-10-11T08:09:02.045Z,79.10
2022-10-11T08:11:34.190Z,79.14
2022-10-11T08:14:05.204Z,78.81
2022-10-11T08:16:33.302Z,76.76
2022-10-11T08:19:03.125Z,76.96
2022-10-11T08:21:45.965Z,78.30
2022-10-11T08:24:14.120Z,77.87
2022-10-11T08:26:42.897Z,76.75
2022-10-11T08:29:10.603Z,77.66
2022-10-11T08:31:38.107Z,75.99
2022-10-11T08:34:05.621Z,75.89
2022-10-11T08:36:33.562Z,74.84
2022-10-11T08:39:04.604Z,74.88
2022-10-11T08:41:42.643Z,68.68
2022-10-11T08:44:46.112Z,69.01
2022-10-11T08:47:32.660Z,70.44
2022-10-11T08:50:02.727Z,71.40
2022-10-11T08:53:02.968Z,73.24
2022-10-11T08:55:46.130Z,72.65
2022-10-11T08:58:23.202Z,70.21
2022-10-11T09:00:56.210Z,68.36
2022-10-11T09:03:54.790Z,68.93
2022-10-11T09:06:27.571Z,68.72
2022-10-11T09:09:06.857Z,69.05
2022-10-11T09:11:55.820Z,68.02
2022-10-11T09:14:47.467Z,67.74
2022-10-11T09:17:32.927Z,67.30
2022-10-11T09:20:19.190Z,65.63
2022-10-11T09:23:20.761Z,67.28
2022-10-11T09:26:02.728Z,68.93
2022-10-11T09:29:11.564Z,69.19
2022-10-11T09:31:39.269Z,65.04
2022-10-11T09:34:14.237Z,64.79
2022-10-11T09:36:46.771Z,66.04
2022-10-11T09:39:35.629Z,68.79
2022-10-11T09:42:10.236Z,68.65
2022-10-11T09:44:57.429Z,67.57
2022-10-11T09:47:33.025Z,67.42
2022-10-11T09:50:18.024Z,66.89
2022-10-11T09:52:51.661Z,65.69
2022-10-11T09:56:02.881Z,66.48
2022-10-11T09:58:34.793Z,64.09
2022-10-11T10:01:08.536Z,61.47
2022-10-11T10:03:43.240Z,59.12
2022-10-11T10:06:17.520Z,61.63
2022-10-11T10:08:47.315Z,60.92
2022-10-11T10:11:15.980Z,60.05
2022-10-11T10:13:52.111Z,60.55
2022-10-11T10:16:39.951Z,61.86
2022-10-11T10:19:25.088Z,62.21
2022-10-11T10:21:56.449Z,62.63
2022-10-11T10:24:40.376Z,63.93
2022-10-11T10:27:26.614Z,62.81
2022-10-11T10:30:15.975Z,63.15
2022-10-11T10:33:16.922Z,63.59
2022-10-11T10:36:06.484Z,64.55
2022-10-11T10:38:43.193Z,62.73
2022-10-11T10:41:13.945Z,63.17
2022-10-11T10:43:52.833Z,63.03
2022-10-11T10:47:06.611Z,61.49
2022-10-11T10:50:04.316Z,61.59
2022-10-11T10:53:06.019Z,59.51
2022-10-11T10:56:24.042Z,58.23
2022-10-11T10:59:03.627Z,59.71
2022-10-11T11:01:45.450Z,59.41
2022-10-11T11:04:34.437Z,62.32
2022-10-11T11:07:35.405Z,61.04
2022-10-11T11:10:29.444Z,61.20
2022-10-11T11:13:08.829Z,61.05
2022-10-11T11:16:22.717Z,59.43
2022-10-11T11:19:05.428Z,58.58
2022-10-11T11:21:56.943Z,59.40
2022-10-11T11:24:58.520Z,58.92
2022-10-11T11:27:37.743Z,57.58
2022-10-11T11:30:10.730Z,57.61
2022-10-11T11:33:01.203Z,60.15
2022-10-11T11:35:43.054Z,60.23
2022-10-11T11:38:42.871Z,57.01
2022-10-11T11:41:41.277Z,58.81
2022-10-11T11:44:27.112Z,58.13
2022-10-11T11:47:11.904Z,59.65
2022-10-11T11:49:48.721Z,59.56
2022-10-11T11:52:35.300Z,58.92
2022-10-11T11:55:16.959Z,57.81
2022-10-11T11:58:07.258Z,58.25
2022-10-11T12:00:58.387Z,59.21
2022-10-11T12:03:32.254Z,59.81
2022-10-11T12:06:14.778Z,58.96
2022-10-11T12:08:47.560Z,59.19
2022-10-11T12:11:31.687Z,60.73
2022-10-11T12:14:04.656Z,62.71
2022-10-11T12:16:33.152Z,62.01
2022-10-11T12:19:03.840Z,62.75
2022-10-11T12:21:39.453Z,63.01
2022-10-11T12:24:24.118Z,60.90
2022-10-11T12:26:58.717Z,58.57
2022-10-11T12:29:50.173Z,60.02
2022-10-11T12:32:35.909Z,58.76
2022-10-11T12:35:31.686Z,60.71
2022-10-11T12:38:13.607Z,61.46
2022-10-11T12:40:43.069Z,60.22
2022-10-11T12:43:30.765Z,60.08
2022-10-11T12:46:15.767Z,62.60
2022-10-11T12:49:17.846Z,62.48
2022-10-11T12:52:16.193Z,61.49
2022-10-11T12:55:37.335Z,63.39
2022-10-11T12:58:38.835Z,61.47
2022-10-11T13:01:23.080Z,62.42
2022-10-11T13:04:04.158Z,60.67
2022-10-11T13:06:57.155Z,62.41
2022-10-11T13:09:39.398Z,63.12
2022-10-11T13:12:24.173Z,65.26
2022-10-11T13:15:09.758Z,65.10
2022-10-11T13:17:39.567Z,65.48
2022-10-11T13:20:20.762Z,66.60
2022-10-11T13:22:53.140Z,62.92
2022-10-11T13:25:25.157Z,63.82
2022-10-11T13:28:16.752Z,64.09
2022-10-11T13:30:52.384Z,64.55
2022-10-11T13:33:32.213Z,66.38
2022-10-11T13:36:03.983Z,65.89
2022-10-11T13:38:36.900Z,63.14
2022-10-11T13:41:08.687Z,65.70
2022-10-11T13:43:37.446Z,65.73
2022-10-11T13:46:05.790Z,68.07
2022-10-11T13:48:41.275Z,65.88
2022-10-11T13:51:30.302Z,65.36
2022-10-11T13:54:05.773Z,67.15
2022-10-11T13:56:46.657Z,67.99
2022-10-11T13:59:24.251Z,68.73
2022-10-11T14:01:59.014Z,68.25
2022-10-11T14:04:29.768Z,67.74
2022-10-11T14:07:03.167Z,69.60
2022-10-11T14:09:38.051Z,67.52
2022-10-11T14:12:33.580Z,69.70
2022-10-11T14:15:03.203Z,69.16
2022-10-11T14:17:48.885Z,71.25
2022-10-11T14:20:24.081Z,72.52
2022-10-11T14:22:53.255Z,71.49
2022-10-11T14:25:22.094Z,72.11
2022-10-11T14:27:51.245Z,72.87
2022-10-11T14:30:27.299Z,70.18
2022-10-11T14:33:01.555Z,70.19
2022-10-11T14:35:33.045Z,71.64
2022-10-11T14:38:01.090Z,72.71
2022-10-11T14:40:31.555Z,71.45
2022-10-11T14:43:02.110Z,72.62
2022-10-11T14:45:29.591Z,71.98
2022-10-11T14:47:57.371Z,71.59
2022-10-11T14:50:43.592Z,72.42
2022-10-11T14:53:12.131Z,72.35
2022-10-11T14:55:40.900Z,72.31
2022-10-11T14:58:10.947Z,73.44
2022-10-11T15:00:43.170Z,72.29
2022-10-11T15:03:13.986Z,71.61
2022-10-11T15:05:42.073Z,71.82
2022-10-11T15:08:09.820Z,72.29
2022-10-11T15:10:40.533Z,72.58
2022-10-11T15:13:09.397Z,73.67
2022-10-11T15:15:40.877Z,73.30
2022-10-11T15:18:13.044Z,73.88
2022-10-11T15:20:46.131Z,73.72
2022-10-11T15:23:25.208Z,73.68
2022-10-11T15:25:52.902Z,74.44
2022-10-11T15:28:31.503Z,74.39
2022-10-11T15:31:00.464Z,74.06
2022-10-11T15:33:28.095Z,73.67
2022-10-11T15:35:55.643Z,74.34
2022-10-11T15:38:25.723Z,74.43
2022-10-11T15:40:54.274Z,75.52
2022-10-11T15:43:25.018Z,75.59
2022-10-11T15:45:59.242Z,76.15
2022-10-11T15:48:29.245Z,75.99
2022-10-11T15:51:16.896Z,76.49
2022-10-11T15:53:45.876Z,76.56
2022-10-11T15:56:17.921Z,75.89
2022-10-11T15:58:45.608Z,75.87
2022-10-11T16:01:19.384Z,75.34
2022-10-11T16:03:50.351Z,76.75
2022-10-11T16:06:22.231Z,76.96
2022-10-11T16:08:50.155Z,77.54
2022-10-11T16:11:17.781Z,78.03
2022-10-11T16:13:45.475Z,78.89
2022-10-11T16:16:14.381Z,78.75
2022-10-11T16:18:41.944Z,79.84
2022-10-11T16:21:13.051Z,80.31
2022-10-11T16:23:41.740Z,80.92
2022-10-11T16:26:16.993Z,80.30
2022-10-11T16:28:44.876Z,81.80
2022-10-11T16:31:18.209Z,82.77
2022-10-11T16:33:46.435Z,82.26
2022-10-11T16:36:37.016Z,81.85
2022-10-11T16:39:18.563Z,82.37
2022-10-11T16:41:47.927Z,82.66
2022-10-11T16:44:22.609Z,83.41
2022-10-11T16:46:51.647Z,84.06
2022-10-11T16:49:26.714Z,83.83
2022-10-11T16:52:00.199Z,84.14
2022-10-11T16:54:30.441Z,84.26
2022-10-11T16:57:01.825Z,85.38
2022-10-11T16:59:33.244Z,82.43
2022-10-11T17:02:03.940Z,82.24
2022-10-11T17:04:34.464Z,82.73
2022-10-11T17:07:05.557Z,78.59
2022-10-11T17:09:44.150Z,80.26
2022-10-11T17:12:20.940Z,80.90
2022-10-11T17:14:51.955Z,85.09
2022-10-11T17:17:47.934Z,81.86
2022-10-11T17:20:18.150Z,84.29
2022-10-11T17:22:48.156Z,85.46
2022-10-11T17:25:18.145Z,87.00
2022-10-11T17:27:46.084Z,88.58
2022-10-11T17:30:14.092Z,88.96
2022-10-11T17:32:42.154Z,90.61
2022-10-11T17:35:12.892Z,90.71
2022-10-11T17:37:43.387Z,91.26
2022-10-11T17:40:11.444Z,91.31
2022-10-11T17:42:39.243Z,90.77
2022-10-11T17:45:13.891Z,90.91
2022-10-11T17:47:41.825Z,91.96
2022-10-11T17:50:09.763Z,92.30
2022-10-11T17:52:37.720Z,92.78
2022-10-11T17:55:05.587Z,91.55
2022-10-11T17:57:33.913Z,91.96
2022-10-11T18:00:03.937Z,92.36
2022-10-11T18:02:53.507Z,93.33
2022-10-11T18:05:26.481Z,92.67
2022-10-11T18:07:56.609Z,90.82
2022-10-11T18:10:25.042Z,90.88
2022-10-11T18:12:56.845Z,92.40
2022-10-11T18:15:24.625Z,93.23
2022-10-11T18:17:52.799Z,92.01
2022-10-11T18:20:20.739Z,92.32
2022-10-11T18:22:51.061Z,93.33
2022-10-11T18:25:19.017Z,94.50
2022-10-11T18:27:46.819Z,94.72
2022-10-11T18:30:15.157Z,95.14
2022-10-11T18:32:44.303Z,95.00
2022-10-11T18:35:13.556Z,95.00
2022-10-11T18:37:42.091Z,95.08
2022-10-11T18:40:13.197Z,94.19
2022-10-11T18:42:41.750Z,93.69
2022-10-11T18:45:10.640Z,94.08
2022-10-11T18:47:41.942Z,94.80
2022-10-11T18:50:10.837Z,95.80
2022-10-11T18:52:47.980Z,96.97
2022-10-11T18:55:49.070Z,95.69
2022-10-11T18:58:17.125Z,95.89
2022-10-11T19:00:47.695Z,97.26
2022-10-11T19:03:16.282Z,97.44
2022-10-11T19:05:43.751Z,98.09
2022-10-11T19:08:11.502Z,98.80
2022-10-11T19:10:39.023Z,98.42
2022-10-11T19:13:07.181Z,99.68
2022-10-11T19:15:38.972Z,99.86
2022-10-11T19:18:06.611Z,100.00
2022-10-11T19:20:36.664Z,99.51
2022-10-11T19:23:04.808Z,99.93
2022-10-11T19:25:37.161Z,100.00
2022-10-11T19:28:06.516Z,100.00
2022-10-11T19:30:34.567Z,100.00
2022-10-11T19:33:04.801Z,100.00
2022-10-11T19:35:32.339Z,100.00
2022-10-11T19:38:00.947Z,100.00
2022-10-11T19:40:30.314Z,100.00
2022-10-11T19:43:01.106Z,100.00
2022-10-11T19:45:28.642Z,100.00
2022-10-11T19:47:59.175Z,100.00
2022-10-11T19:50:29.312Z,100.00
2022-10-11T19:52:58.272Z,100.00
2022-10-11T19:55:28.899Z,100.00
2022-10-11T19:57:58.755Z,100.00
2022-10-11T20:00:29.320Z,100.00
2022-10-11T20:02:58.397Z,100.00
2022-10-11T20:05:26.443Z,100.00
2022-10-11T20:07:54.385Z,100.00
2022-10-11T20:10:22.371Z,100.00
2022-10-11T20:12:50.025Z,100.00
2022-10-11T20:15:17.553Z,100.00
2022-10-11T20:17:48.330Z,100.00
2022-10-11T20:20:20.855Z,100.00
2022-10-11T20:22:48.406Z,100.00
2022-10-11T20:25:16.269Z,100.00
2022-10-11T20:27:47.074Z,100.00
2022-10-11T20:30:15.195Z,100.00
2022-10-11T20:32:43.377Z,100.00
2022-10-11T20:35:10.934Z,100.00
2022-10-11T20:37:38.629Z,100.00
2022-10-11T20:40:06.608Z,100.00
2022-10-11T20:42:34.238Z,100.00
2022-10-11T20:45:01.765Z,100.00
2022-10-11T20:47:29.281Z,100.00
2022-10-11T20:49:56.875Z,100.00
2022-10-11T20:52:26.996Z,100.00
2022-10-11T20:54:54.670Z,100.00
2022-10-11T20:57:24.758Z,100.00
2022-10-11T20:59:55.366Z,100.00
2022-10-11T21:02:23.611Z,100.00
2022-10-11T21:04:52.154Z,100.00
2022-10-11T21:07:21.108Z,100.00
2022-10-11T21:09:48.715Z,100.00
2022-10-11T21:12:16.207Z,100.00
2022-10-11T21:14:43.788Z,100.00
2022-10-11T21:17:12.310Z,100.00
2022-10-11T21:19:39.860Z,100.00
2022-10-11T21:22:07.505Z,100.00
2022-10-11T21:24:35.351Z,100.00
2022-10-11T21:27:03.020Z,100.00
2022-10-11T21:29:30.721Z,100.00
2022-10-11T21:31:58.258Z,100.00
2022-10-11T21:34:25.754Z,100.00
2022-10-11T21:36:53.340Z,98.02
2022-10-11T21:39:20.981Z,98.80
2022-10-11T21:41:48.585Z,98.90
2022-10-11T21:44:16.242Z,99.33
2022-10-11T21:47:07.149Z,100.00
2022-10-11T21:49:34.076Z,100.00
2022-10-11T21:52:02.014Z,100.00
2022-10-11T21:54:29.605Z,100.00
2022-10-11T21:56:57.084Z,100.00
2022-10-11T21:59:24.701Z,100.00
2022-10-11T22:01:55.975Z,100.00
2022-10-11T22:04:27.035Z,100.00
2022-10-11T22:06:54.522Z,100.00
2022-10-11T22:09:22.687Z,100.00
2022-10-11T22:11:50.146Z,100.00
2022-10-11T22:14:18.056Z,100.00
2022-10-11T22:16:45.634Z,100.00
2022-10-11T22:19:13.148Z,100.00
2022-10-11T22:21:44.881Z,100.00
2022-10-11T22:24:13.445Z,100.00
2022-10-11T22:26:41.007Z,100.00
2022-10-11T22:29:08.729Z,100.00
2022-10-11T22:31:36.691Z,100.00
2022-10-11T22:34:04.497Z,100.00
2022-10-11T22:36:33.621Z,100.00
2022-10-11T22:39:01.304Z,100.00
2022-10-11T22:41:28.805Z,100.00
2022-10-11T22:43:56.515Z,100.00
2022-10-11T22:46:23.999Z,100.00
2022-10-11T22:48:51.488Z,100.00
2022-10-11T22:51:19.211Z,100.00
2022-10-11T22:53:46.762Z,100.00
2022-10-11T22:56:14.289Z,100.00
2022-10-11T22:58:41.947Z,100.00
2022-10-11T23:01:12.758Z,100.00
2022-10-11T23:03:40.827Z,100.00
2022-10-11T23:06:08.805Z,100.00
2022-10-11T23:08:36.398Z,100.00
2022-10-11T23:11:06.130Z,100.00
2022-10-11T23:13:34.338Z,100.00
2022-10-11T23:16:08.129Z,100.00
2022-10-11T23:18:36.417Z,100.00
2022-10-11T23:21:05.098Z,100.00
2022-10-11T23:23:32.870Z,100.00
2022-10-11T23:26:04.509Z,100.00
2022-10-11T23:28:35.928Z,100.00
2022-10-11T23:31:12.970Z,100.00
2022-10-11T23:33:40.840Z,100.00
2022-10-11T23:36:17.014Z,100.00
2022-10-11T23:38:45.164Z,100.00
2022-10-11T23:41:12.818Z,95.72
2022-10-11T23:43:40.375Z,96.22
2022-10-11T23:46:07.916Z,97.52
2022-10-11T23:48:35.480Z,98.31
2022-10-11T23:51:06.202Z,97.49
2022-10-11T23:53:34.620Z,95.85
2022-10-11T23:56:02.336Z,93.23
2022-10-11T23:58:29.926Z,93.17
